createdAt,value
2022-12-08T00:05:04.710Z,6.63
2022-12-08T00:10:39.648Z,8.00
2022-12-08T00:15:33.254Z,6.67
2022-12-08T00:20:38.113Z,7.83
2022-12-08T00:25:41.473Z,8.30
2022-12-08T00:30:45.445Z,6.87
2022-12-08T00:35:50.458Z,7.07
2022-12-08T00:40:53.928Z,7.13
2022-12-08T00:45:57.469Z,6.80
2022-12-08T00:51:02.495Z,8.30
2022-12-08T00:56:06.017Z,8.00
2022-12-08T01:01:12.775Z,7.82
2022-12-08T01:06:17.983Z,8.40
2022-12-08T01:11:21.628Z,6.83
2022-12-08T01:16:26.875Z,7.43
2022-12-08T01:21:31.799Z,6.07
2022-12-08T01:26:35.306Z,7.33
2022-12-08T01:31:38.819Z,7.97
2022-12-08T01:36:44.698Z,7.63
2022-12-08T01:41:48.860Z,7.13
2022-12-08T01:46:55.011Z,7.90
2022-12-08T01:52:04.370Z,6.80
2022-12-08T01:57:11.691Z,6.60
2022-12-08T02:02:15.482Z,7.23
2022-12-08T02:07:20.368Z,6.65
2022-12-08T02:12:23.884Z,6.67
2022-12-08T02:17:59.765Z,6.20
2022-12-08T02:23:12.741Z,8.40
2022-12-08T02:28:39.466Z,6.50
2022-12-08T02:34:14.278Z,7.27
2022-12-08T02:39:29.995Z,6.82
2022-12-08T02:44:38.249Z,6.07
2022-12-08T02:49:43.558Z,8.53
2022-12-08T02:54:52.038Z,8.23
2022-12-08T03:00:07.768Z,7.47
2022-12-08T03:05:23.276Z,6.77
2022-12-08T03:10:34.294Z,7.20
2022-12-08T03:15:39.976Z,7.87
2022-12-08T03:20:46.518Z,7.97
2022-12-08T03:25:55.376Z,8.53
2022-12-08T03:31:03.725Z,6.53
2022-12-08T03:36:11.011Z,8.23
2022-12-08T03:41:20.616Z,7.40
2022-12-08T03:51:29.022Z,7.83
2022-12-08T03:56:34.939Z,7.50
2022-12-08T04:01:38.750Z,10.07
2022-12-08T04:06:43.619Z,8.33
2022-12-08T04:11:47.149Z,8.50
2022-12-08T04:16:50.448Z,7.57
2022-12-08T04:21:55.185Z,6.83
2022-12-08T04:26:58.515Z,8.70
2022-12-08T04:32:01.947Z,7.03
2022-12-08T04:37:06.780Z,7.72
2022-12-08T04:42:10.109Z,8.20
2022-12-08T04:47:13.556Z,7.73
2022-12-08T04:52:18.483Z,7.90
2022-12-08T04:57:22.095Z,9.27
2022-12-08T05:02:25.658Z,8.57
2022-12-08T05:07:30.640Z,9.47
2022-12-08T05:12:34.630Z,10.17
2022-12-08T05:17:38.111Z,7.40
2022-12-08T05:22:42.933Z,9.10
2022-12-08T05:27:46.302Z,8.73
2022-12-08T05:32:49.678Z,6.93
2022-12-08T05:37:57.287Z,6.67
2022-12-08T05:43:00.767Z,9.50
2022-12-08T05:48:04.188Z,8.13
2022-12-08T05:53:08.958Z,8.87
2022-12-08T05:58:15.050Z,7.30
2022-12-08T06:03:20.883Z,8.40
2022-12-08T06:08:25.986Z,9.37
2022-12-08T06:13:29.455Z,9.17
2022-12-08T06:18:33.135Z,10.50
2022-12-08T06:23:38.354Z,8.10
2022-12-08T06:28:42.507Z,6.60
2022-12-08T06:33:46.563Z,11.88
2022-12-08T06:38:51.610Z,8.68
2022-12-08T06:43:57.492Z,9.23
2022-12-08T06:49:00.811Z,9.10
2022-12-08T06:54:05.867Z,7.37
2022-12-08T06:59:09.483Z,7.70
2022-12-08T07:04:12.965Z,8.53
2022-12-08T07:09:17.751Z,8.40
2022-12-08T07:14:24.931Z,6.87
2022-12-08T07:19:28.633Z,6.43
2022-12-08T07:24:33.808Z,5.97
2022-12-08T07:29:37.241Z,5.60
2022-12-08T07:34:40.725Z,4.47
2022-12-08T07:39:45.490Z,5.90
2022-12-08T07:44:48.935Z,5.10
2022-12-08T07:49:52.355Z,5.83
2022-12-08T07:54:57.383Z,5.63
2022-12-08T08:00:00.739Z,5.70
2022-12-08T08:05:04.496Z,6.40
2022-12-08T08:10:10.964Z,6.75
2022-12-08T08:15:14.559Z,6.10
2022-12-08T08:20:17.976Z,5.57
2022-12-08T08:25:23.844Z,5.70
2022-12-08T08:30:27.258Z,5.20
2022-12-08T08:35:30.864Z,4.97
2022-12-08T08:40:35.867Z,6.23
2022-12-08T08:45:39.317Z,6.83
2022-12-08T08:50:42.795Z,6.00
2022-12-08T08:55:47.878Z,5.17
2022-12-08T09:00:51.431Z,5.33
2022-12-08T09:05:56.423Z,5.40
2022-12-08T09:11:01.412Z,5.33
2022-12-08T09:16:05.915Z,4.70
2022-12-08T09:21:11.715Z,7.50
2022-12-08T09:26:16.623Z,5.90
2022-12-08T09:31:21.232Z,5.50
2022-12-08T09:36:24.727Z,5.90
2022-12-08T09:41:40.308Z,5.33
2022-12-08T09:46:45.725Z,5.97
2022-12-08T09:51:49.547Z,6.30
2022-12-08T09:56:59.944Z,7.10
2022-12-08T10:02:03.922Z,6.63
2022-12-08T10:07:16.619Z,6.13
2022-12-08T10:12:27.578Z,6.70
2022-12-08T10:17:38.102Z,6.17
2022-12-08T10:22:44.923Z,6.50
2022-12-08T10:27:52.719Z,6.03
2022-12-08T10:32:56.524Z,5.73
2022-12-08T10:38:01.760Z,7.47
2022-12-08T10:43:07.160Z,5.57
2022-12-08T10:48:17.922Z,6.60
2022-12-08T10:53:24.637Z,6.23
2022-12-08T10:58:34.141Z,6.03
2022-12-08T11:03:45.903Z,5.87
2022-12-08T11:08:52.718Z,7.30
2022-12-08T11:13:57.963Z,7.40
2022-12-08T11:19:07.462Z,7.37
2022-12-08T11:24:24.243Z,7.23
2022-12-08T11:29:30.286Z,5.97
2022-12-08T11:34:38.533Z,7.73
2022-12-08T11:39:46.040Z,7.00
2022-12-08T11:44:55.979Z,7.20
2022-12-08T11:50:06.032Z,6.87
2022-12-08T11:55:26.011Z,6.27
2022-12-08T12:00:30.980Z,7.60
2022-12-08T12:11:38.287Z,7.03
2022-12-08T12:22:25.209Z,6.27
2022-12-08T12:27:31.397Z,7.00
2022-12-08T12:32:47.138Z,7.67
2022-12-08T12:37:50.986Z,6.67
2022-12-08T12:43:15.888Z,8.15
2022-12-08T12:48:25.980Z,7.55
2022-12-08T12:53:52.321Z,4.63
2022-12-08T12:58:56.020Z,6.80
2022-12-08T13:04:08.674Z,7.67
2022-12-08T13:09:30.443Z,6.67
2022-12-08T13:14:37.445Z,7.03
2022-12-08T13:19:48.806Z,8.43
2022-12-08T13:24:54.841Z,8.27
2022-12-08T13:30:35.421Z,8.57
2022-12-08T13:35:46.043Z,9.80
2022-12-08T13:40:50.484Z,7.80
2022-12-08T13:57:10.552Z,7.17
2022-12-08T14:02:19.503Z,7.35
2022-12-08T14:07:25.282Z,7.93
2022-12-08T14:12:29.836Z,8.60
2022-12-08T14:17:34.131Z,8.55
2022-12-08T14:22:40.804Z,8.55
2022-12-08T14:27:44.590Z,8.60
2022-12-08T14:32:50.850Z,9.27
2022-12-08T14:37:58.838Z,8.30
2022-12-08T14:43:16.814Z,8.53
2022-12-08T14:48:25.491Z,9.07
2022-12-08T14:53:40.841Z,7.97
2022-12-08T14:58:44.481Z,6.43
2022-12-08T15:03:51.259Z,9.57
2022-12-08T15:09:00.039Z,9.33
2022-12-08T15:14:03.453Z,8.50
2022-12-08T15:19:17.767Z,8.67
2022-12-08T15:24:25.170Z,8.73
2022-12-08T15:29:31.159Z,9.03
2022-12-08T15:34:34.502Z,9.43
2022-12-08T15:39:40.079Z,9.43
2022-12-08T15:44:43.493Z,9.37
2022-12-08T15:49:47.755Z,9.83
2022-12-08T15:54:52.713Z,9.23
2022-12-08T15:59:56.307Z,9.37
2022-12-08T16:05:33.839Z,9.00
2022-12-08T16:10:32.212Z,9.57
2022-12-08T16:15:57.084Z,10.70
2022-12-08T16:21:17.004Z,8.98
2022-12-08T16:27:28.554Z,10.17
2022-12-08T16:31:53.153Z,6.60
2022-12-08T16:36:56.807Z,9.27
2022-12-08T16:42:15.598Z,11.03
2022-12-08T16:47:18.931Z,10.13
2022-12-08T16:52:22.464Z,10.30
2022-12-08T16:57:27.643Z,10.30
2022-12-08T17:02:31.206Z,11.13
2022-12-08T17:07:36.011Z,9.33
2022-12-08T17:12:40.952Z,9.83
2022-12-08T17:17:44.737Z,11.10
2022-12-08T17:22:48.667Z,11.13
2022-12-08T17:27:53.595Z,10.10
2022-12-08T17:32:56.931Z,12.17
2022-12-08T17:38:00.381Z,11.60
2022-12-08T17:43:05.777Z,12.07
2022-12-08T17:48:09.528Z,12.50
2022-12-08T17:53:13.327Z,11.73
2022-12-08T17:58:18.189Z,10.23
2022-12-08T18:08:24.844Z,12.70
2022-12-08T18:13:29.637Z,11.83
2022-12-08T18:23:38.101Z,11.33
2022-12-08T18:28:43.547Z,11.97
2022-12-08T18:33:48.066Z,11.43
2022-12-08T18:38:51.650Z,11.27
2022-12-08T18:43:57.594Z,10.57
2022-12-08T18:49:01.134Z,11.83
2022-12-08T18:54:04.575Z,12.53
2022-12-08T18:59:12.389Z,12.47
2022-12-08T19:04:34.693Z,12.17
2022-12-08T19:09:40.170Z,11.53
2022-12-08T19:14:45.056Z,11.50
2022-12-08T19:19:48.678Z,11.07
2022-12-08T19:24:52.208Z,11.90
2022-12-08T19:29:57.647Z,11.03
2022-12-08T19:35:01.260Z,9.47
2022-12-08T19:40:22.902Z,10.23
2022-12-08T19:45:28.071Z,11.43
2022-12-08T19:50:37.542Z,11.27
2022-12-08T19:55:41.477Z,10.87
2022-12-08T20:00:46.858Z,10.43
2022-12-08T20:05:52.895Z,11.43
2022-12-08T20:10:59.148Z,12.23
2022-12-08T20:16:03.945Z,11.60
2022-12-08T20:21:08.174Z,9.53
2022-12-08T20:26:14.151Z,12.15
2022-12-08T20:31:21.116Z,11.03
2022-12-08T20:36:25.043Z,8.07
2022-12-08T20:41:28.365Z,9.73
2022-12-08T20:46:33.226Z,10.73
2022-12-08T20:51:36.717Z,10.67
2022-12-08T20:56:47.919Z,11.20
2022-12-08T21:01:54.009Z,10.43
2022-12-08T21:06:57.625Z,9.70
2022-12-08T21:12:01.095Z,11.13
2022-12-08T21:17:06.134Z,9.97
2022-12-08T21:22:10.147Z,10.93
2022-12-08T21:27:13.755Z,10.50
2022-12-08T21:32:18.784Z,11.37
2022-12-08T21:37:22.522Z,11.40
2022-12-08T21:42:43.464Z,13.07
2022-12-08T21:47:50.004Z,14.00
2022-12-08T21:52:53.537Z,11.63
2022-12-08T21:57:57.324Z,13.83
2022-12-08T22:03:02.742Z,12.45
2022-12-08T22:08:06.874Z,12.97
2022-12-08T22:13:10.540Z,11.88
2022-12-08T22:18:15.385Z,16.23
2022-12-08T22:23:19.102Z,14.97
2022-12-08T22:28:22.685Z,14.55
2022-12-08T22:33:29.451Z,14.80
2022-12-08T22:38:32.988Z,13.43
2022-12-08T22:43:37.409Z,15.03
2022-12-08T22:48:42.264Z,14.48
2022-12-08T22:53:46.284Z,12.70
2022-12-08T22:58:49.933Z,14.10
2022-12-08T23:03:55.182Z,11.85
2022-12-08T23:08:59.423Z,13.93
2022-12-08T23:14:03.037Z,13.60
2022-12-08T23:19:10.033Z,14.90
2022-12-08T23:24:13.497Z,17.10
2022-12-08T23:29:17.537Z,18.37
2022-12-08T23:34:22.262Z,14.80
2022-12-08T23:39:25.674Z,17.60
2022-12-08T23:44:29.157Z,17.60
2022-12-08T23:49:34.066Z,17.03
2022-12-08T23:54:37.452Z,15.77
2022-12-08T23:59:41.010Z,15.70
